sensor_id;sensor_type;location;lat;lon;timestamp;P1;durP1;ratioP1;P2;durP2;ratioP2
38224;SDS011;24025;48.138;11.428;2023-04-05T00:01:09;9.88;;;4.55;;
38224;SDS011;24025;48.138;11.428;2023-04-05T00:03:42;9.18;;;4.15;;
38224;SDS011;24025;48.138;11.428;2023-04-05T00:06:14;11.38;;;4.85;;
38224;SDS011;24025;48.138;11.428;2023-04-05T00:08:46;11.65;;;4.15;;
38224;SDS011;24025;48.138;11.428;2023-04-05T00:11:20;7.05;;;3.78;;
38224;SDS011;24025;48.138;11.428;2023-04-05T00:13:52;16.13;;;3.95;;
38224;SDS011;24025;48.138;11.428;2023-04-05T00:16:25;10.07;;;4.17;;
38224;SDS011;24025;48.138;11.428;2023-04-05T00:18:57;9.00;;;4.40;;
38224;SDS011;24025;48.138;11.428;2023-04-05T00:21:30;5.85;;;3.88;;
38224;SDS011;24025;48.138;11.428;2023-04-05T00:24:03;8.57;;;3.85;;
38224;SDS011;24025;48.138;11.428;2023-04-05T00:26:35;7.38;;;3.53;;
38224;SDS011;24025;48.138;11.428;2023-04-05T00:29:07;6.05;;;3.85;;
38224;SDS011;24025;48.138;11.428;2023-04-05T00:31:39;8.07;;;4.10;;
38224;SDS011;24025;48.138;11.428;2023-04-05T00:34:11;10.52;;;4.00;;
38224;SDS011;24025;48.138;11.428;2023-04-05T00:36:42;7.53;;;3.60;;
38224;SDS011;24025;48.138;11.428;2023-04-05T00:39:14;8.07;;;3.27;;
38224;SDS011;24025;48.138;11.428;2023-04-05T00:41:46;7.22;;;3.80;;
38224;SDS011;24025;48.138;11.428;2023-04-05T00:44:19;15.48;;;4.40;;
38224;SDS011;24025;48.138;11.428;2023-04-05T00:46:50;11.02;;;4.57;;
38224;SDS011;24025;48.138;11.428;2023-04-05T00:49:22;12.05;;;3.30;;
38224;SDS011;24025;48.138;11.428;2023-04-05T00:51:54;8.88;;;3.95;;
38224;SDS011;24025;48.138;11.428;2023-04-05T00:54:28;5.32;;;3.60;;
38224;SDS011;24025;48.138;11.428;2023-04-05T00:59:31;5.72;;;3.10;;
38224;SDS011;24025;48.138;11.428;2023-04-05T01:02:26;9.97;;;3.77;;
38224;SDS011;24025;48.138;11.428;2023-04-05T01:05:02;7.90;;;3.45;;
38224;SDS011;24025;48.138;11.428;2023-04-05T01:07:49;6.90;;;3.33;;
38224;SDS011;24025;48.138;11.428;2023-04-05T01:10:30;5.47;;;3.40;;
38224;SDS011;24025;48.138;11.428;2023-04-05T01:13:05;6.97;;;3.78;;
38224;SDS011;24025;48.138;11.428;2023-04-05T01:15:37;9.25;;;3.47;;
38224;SDS011;24025;48.138;11.428;2023-04-05T01:18:08;6.93;;;3.60;;
38224;SDS011;24025;48.138;11.428;2023-04-05T01:20:45;11.70;;;3.30;;
38224;SDS011;24025;48.138;11.428;2023-04-05T01:23:41;7.32;;;3.83;;
38224;SDS011;24025;48.138;11.428;2023-04-05T01:26:32;5.80;;;2.92;;
38224;SDS011;24025;48.138;11.428;2023-04-05T01:32:23;10.80;;;3.50;;
38224;SDS011;24025;48.138;11.428;2023-04-05T01:37:46;4.85;;;3.33;;
38224;SDS011;24025;48.138;11.428;2023-04-05T01:40:20;5.78;;;3.17;;
38224;SDS011;24025;48.138;11.428;2023-04-05T01:42:53;5.10;;;2.90;;
38224;SDS011;24025;48.138;11.428;2023-04-05T01:45:24;5.22;;;3.10;;
38224;SDS011;24025;48.138;11.428;2023-04-05T01:47:56;7.22;;;2.97;;
38224;SDS011;24025;48.138;11.428;2023-04-05T01:50:31;5.57;;;2.83;;
38224;SDS011;24025;48.138;11.428;2023-04-05T01:53:02;4.28;;;2.75;;
38224;SDS011;24025;48.138;11.428;2023-04-05T01:55:34;6.30;;;3.30;;
38224;SDS011;24025;48.138;11.428;2023-04-05T01:58:06;4.97;;;2.90;;
38224;SDS011;24025;48.138;11.428;2023-04-05T02:00:37;6.43;;;3.50;;
38224;SDS011;24025;48.138;11.428;2023-04-05T02:03:09;9.52;;;3.72;;
38224;SDS011;24025;48.138;11.428;2023-04-05T02:05:41;5.55;;;3.35;;
38224;SDS011;24025;48.138;11.428;2023-04-05T02:08:12;6.53;;;3.17;;
38224;SDS011;24025;48.138;11.428;2023-04-05T02:10:44;4.10;;;2.53;;
38224;SDS011;24025;48.138;11.428;2023-04-05T02:13:17;4.45;;;2.60;;
38224;SDS011;24025;48.138;11.428;2023-04-05T02:15:49;8.23;;;2.73;;
38224;SDS011;24025;48.138;11.428;2023-04-05T02:18:20;5.38;;;2.60;;
38224;SDS011;24025;48.138;11.428;2023-04-05T02:20:52;5.07;;;2.65;;
38224;SDS011;24025;48.138;11.428;2023-04-05T02:23:24;5.90;;;2.77;;
38224;SDS011;24025;48.138;11.428;2023-04-05T02:25:56;4.22;;;2.83;;
38224;SDS011;24025;48.138;11.428;2023-04-05T02:31:00;5.82;;;2.78;;
38224;SDS011;24025;48.138;11.428;2023-04-05T02:33:31;3.73;;;2.23;;
38224;SDS011;24025;48.138;11.428;2023-04-05T02:36:04;4.22;;;2.75;;
38224;SDS011;24025;48.138;11.428;2023-04-05T02:38:38;6.35;;;2.90;;
38224;SDS011;24025;48.138;11.428;2023-04-05T02:41:09;6.97;;;2.80;;
38224;SDS011;24025;48.138;11.428;2023-04-05T02:43:44;5.10;;;2.22;;
38224;SDS011;24025;48.138;11.428;2023-04-05T02:46:16;3.53;;;2.05;;
38224;SDS011;24025;48.138;11.428;2023-04-05T02:48:48;6.20;;;2.33;;
38224;SDS011;24025;48.138;11.428;2023-04-05T02:51:19;6.80;;;2.93;;
38224;SDS011;24025;48.138;11.428;2023-04-05T02:53:51;3.38;;;2.20;;
38224;SDS011;24025;48.138;11.428;2023-04-05T02:56:23;5.05;;;2.17;;
38224;SDS011;24025;48.138;11.428;2023-04-05T02:58:57;8.68;;;2.72;;
38224;SDS011;24025;48.138;11.428;2023-04-05T03:01:28;3.70;;;2.17;;
38224;SDS011;24025;48.138;11.428;2023-04-05T03:04:01;4.20;;;2.83;;
38224;SDS011;24025;48.138;11.428;2023-04-05T03:09:04;4.35;;;2.42;;
38224;SDS011;24025;48.138;11.428;2023-04-05T03:14:08;3.83;;;2.42;;
38224;SDS011;24025;48.138;11.428;2023-04-05T03:16:42;6.00;;;2.75;;
38224;SDS011;24025;48.138;11.428;2023-04-05T03:19:13;7.03;;;2.40;;
38224;SDS011;24025;48.138;11.428;2023-04-05T03:21:47;4.43;;;2.70;;
38224;SDS011;24025;48.138;11.428;2023-04-05T03:24:19;4.57;;;2.70;;
38224;SDS011;24025;48.138;11.428;2023-04-05T03:26:51;11.25;;;2.78;;
38224;SDS011;24025;48.138;11.428;2023-04-05T03:29:23;5.93;;;2.42;;
38224;SDS011;24025;48.138;11.428;2023-04-05T03:31:56;7.13;;;3.63;;
38224;SDS011;24025;48.138;11.428;2023-04-05T03:34:29;5.30;;;2.72;;
38224;SDS011;24025;48.138;11.428;2023-04-05T03:37:01;4.40;;;2.53;;
38224;SDS011;24025;48.138;11.428;2023-04-05T03:39:32;5.73;;;2.43;;
38224;SDS011;24025;48.138;11.428;2023-04-05T03:42:03;6.83;;;2.50;;
38224;SDS011;24025;48.138;11.428;2023-04-05T03:44:38;6.70;;;2.70;;
38224;SDS011;24025;48.138;11.428;2023-04-05T03:47:09;4.37;;;2.53;;
38224;SDS011;24025;48.138;11.428;2023-04-05T03:49:41;7.55;;;2.65;;
38224;SDS011;24025;48.138;11.428;2023-04-05T03:52:13;4.88;;;2.67;;
38224;SDS011;24025;48.138;11.428;2023-04-05T03:54:44;8.73;;;2.90;;
38224;SDS011;24025;48.138;11.428;2023-04-05T03:57:16;7.38;;;2.88;;
38224;SDS011;24025;48.138;11.428;2023-04-05T03:59:49;6.32;;;2.60;;
38224;SDS011;24025;48.138;11.428;2023-04-05T04:02:20;4.87;;;2.33;;
38224;SDS011;24025;48.138;11.428;2023-04-05T04:04:52;11.60;;;2.92;;
38224;SDS011;24025;48.138;11.428;2023-04-05T04:07:24;7.57;;;3.13;;
38224;SDS011;24025;48.138;11.428;2023-04-05T04:09:56;4.25;;;2.47;;
38224;SDS011;24025;48.138;11.428;2023-04-05T04:12:28;4.70;;;2.40;;
38224;SDS011;24025;48.138;11.428;2023-04-05T04:15:00;6.97;;;3.07;;
38224;SDS011;24025;48.138;11.428;2023-04-05T04:17:32;3.35;;;2.42;;
38224;SDS011;24025;48.138;11.428;2023-04-05T04:20:06;5.18;;;2.78;;
38224;SDS011;24025;48.138;11.428;2023-04-05T04:22:41;6.78;;;2.70;;
38224;SDS011;24025;48.138;11.428;2023-04-05T04:25:12;5.30;;;3.03;;
38224;SDS011;24025;48.138;11.428;2023-04-05T04:27:44;7.47;;;2.88;;
38224;SDS011;24025;48.138;11.428;2023-04-05T04:30:20;4.47;;;2.78;;
38224;SDS011;24025;48.138;11.428;2023-04-05T04:32:52;6.43;;;3.35;;
38224;SDS011;24025;48.138;11.428;2023-04-05T04:35:31;8.55;;;2.78;;
38224;SDS011;24025;48.138;11.428;2023-04-05T04:38:05;6.05;;;3.15;;
38224;SDS011;24025;48.138;11.428;2023-04-05T04:40:39;5.22;;;2.92;;
38224;SDS011;24025;48.138;11.428;2023-04-05T04:43:11;5.28;;;2.53;;
38224;SDS011;24025;48.138;11.428;2023-04-05T04:45:48;6.07;;;3.28;;
38224;SDS011;24025;48.138;11.428;2023-04-05T04:48:22;9.20;;;2.97;;
38224;SDS011;24025;48.138;11.428;2023-04-05T04:50:56;7.90;;;3.58;;
38224;SDS011;24025;48.138;11.428;2023-04-05T04:53:28;5.05;;;3.10;;
38224;SDS011;24025;48.138;11.428;2023-04-05T04:56:00;8.67;;;3.00;;
38224;SDS011;24025;48.138;11.428;2023-04-05T04:58:31;12.37;;;3.13;;
38224;SDS011;24025;48.138;11.428;2023-04-05T05:01:06;11.07;;;3.03;;
38224;SDS011;24025;48.138;11.428;2023-04-05T05:03:40;10.98;;;3.53;;
38224;SDS011;24025;48.138;11.428;2023-04-05T05:06:15;7.38;;;3.08;;
38224;SDS011;24025;48.138;11.428;2023-04-05T05:08:47;7.63;;;3.28;;
38224;SDS011;24025;48.138;11.428;2023-04-05T05:11:19;7.13;;;3.35;;
38224;SDS011;24025;48.138;11.428;2023-04-05T05:13:50;8.20;;;3.70;;
38224;SDS011;24025;48.138;11.428;2023-04-05T05:16:23;8.10;;;2.72;;
38224;SDS011;24025;48.138;11.428;2023-04-05T05:18:55;8.55;;;2.97;;
38224;SDS011;24025;48.138;11.428;2023-04-05T05:21:27;4.45;;;2.78;;
38224;SDS011;24025;48.138;11.428;2023-04-05T05:23:58;10.43;;;3.13;;
38224;SDS011;24025;48.138;11.428;2023-04-05T05:26:30;6.90;;;3.42;;
38224;SDS011;24025;48.138;11.428;2023-04-05T05:29:01;11.43;;;3.13;;
38224;SDS011;24025;48.138;11.428;2023-04-05T05:31:34;10.02;;;3.95;;
38224;SDS011;24025;48.138;11.428;2023-04-05T05:34:06;6.57;;;3.55;;
38224;SDS011;24025;48.138;11.428;2023-04-05T05:36:38;10.55;;;4.70;;
38224;SDS011;24025;48.138;11.428;2023-04-05T05:39:09;12.70;;;4.70;;
38224;SDS011;24025;48.138;11.428;2023-04-05T05:41:42;7.10;;;3.60;;
38224;SDS011;24025;48.138;11.428;2023-04-05T05:44:14;12.35;;;3.05;;
38224;SDS011;24025;48.138;11.428;2023-04-05T05:46:46;4.50;;;3.10;;
38224;SDS011;24025;48.138;11.428;2023-04-05T05:49:17;13.23;;;4.10;;
38224;SDS011;24025;48.138;11.428;2023-04-05T05:51:49;12.13;;;4.93;;
38224;SDS011;24025;48.138;11.428;2023-04-05T05:54:23;12.60;;;5.13;;
38224;SDS011;24025;48.138;11.428;2023-04-05T05:56:55;10.65;;;4.55;;
38224;SDS011;24025;48.138;11.428;2023-04-05T05:59:27;9.57;;;3.63;;
38224;SDS011;24025;48.138;11.428;2023-04-05T06:01:58;11.85;;;3.63;;
38224;SDS011;24025;48.138;11.428;2023-04-05T06:04:30;10.77;;;4.17;;
38224;SDS011;24025;48.138;11.428;2023-04-05T06:07:01;8.97;;;3.23;;
38224;SDS011;24025;48.138;11.428;2023-04-05T06:12:05;6.45;;;3.30;;
38224;SDS011;24025;48.138;11.428;2023-04-05T06:14:37;10.48;;;4.05;;
38224;SDS011;24025;48.138;11.428;2023-04-05T06:17:09;8.90;;;2.88;;
38224;SDS011;24025;48.138;11.428;2023-04-05T06:19:41;5.80;;;2.90;;
38224;SDS011;24025;48.138;11.428;2023-04-05T06:22:13;8.13;;;3.30;;
38224;SDS011;24025;48.138;11.428;2023-04-05T06:24:44;9.20;;;3.37;;
38224;SDS011;24025;48.138;11.428;2023-04-05T06:27:16;7.80;;;3.47;;
38224;SDS011;24025;48.138;11.428;2023-04-05T06:29:47;6.50;;;2.67;;
38224;SDS011;24025;48.138;11.428;2023-04-05T06:32:19;9.85;;;2.95;;
38224;SDS011;24025;48.138;11.428;2023-04-05T06:34:50;5.95;;;3.17;;
38224;SDS011;24025;48.138;11.428;2023-04-05T06:37:23;11.13;;;3.40;;
38224;SDS011;24025;48.138;11.428;2023-04-05T06:39:55;6.87;;;3.87;;
38224;SDS011;24025;48.138;11.428;2023-04-05T06:42:26;5.22;;;3.00;;
38224;SDS011;24025;48.138;11.428;2023-04-05T06:44:58;4.45;;;2.90;;
38224;SDS011;24025;48.138;11.428;2023-04-05T06:47:35;5.85;;;2.85;;
38224;SDS011;24025;48.138;11.428;2023-04-05T06:50:08;9.52;;;2.58;;
38224;SDS011;24025;48.138;11.428;2023-04-05T06:52:40;8.18;;;2.78;;
38224;SDS011;24025;48.138;11.428;2023-04-05T06:55:13;6.50;;;3.35;;
38224;SDS011;24025;48.138;11.428;2023-04-05T06:57:48;6.57;;;3.58;;
38224;SDS011;24025;48.138;11.428;2023-04-05T07:00:19;8.02;;;3.33;;
38224;SDS011;24025;48.138;11.428;2023-04-05T07:02:51;6.03;;;3.30;;
38224;SDS011;24025;48.138;11.428;2023-04-05T07:05:23;7.10;;;2.93;;
38224;SDS011;24025;48.138;11.428;2023-04-05T07:07:54;8.80;;;3.23;;
38224;SDS011;24025;48.138;11.428;2023-04-05T07:10:26;11.57;;;3.67;;
38224;SDS011;24025;48.138;11.428;2023-04-05T07:12:57;7.15;;;2.83;;
38224;SDS011;24025;48.138;11.428;2023-04-05T07:15:29;6.07;;;3.17;;
38224;SDS011;24025;48.138;11.428;2023-04-05T07:18:00;8.95;;;3.38;;
38224;SDS011;24025;48.138;11.428;2023-04-05T07:20:32;7.30;;;3.58;;
38224;SDS011;24025;48.138;11.428;2023-04-05T07:23:04;10.93;;;3.50;;
38224;SDS011;24025;48.138;11.428;2023-04-05T07:25:36;13.35;;;3.55;;
38224;SDS011;24025;48.138;11.428;2023-04-05T07:28:10;5.30;;;3.40;;
38224;SDS011;24025;48.138;11.428;2023-04-05T07:30:42;11.90;;;2.87;;
38224;SDS011;24025;48.138;11.428;2023-04-05T07:33:14;4.18;;;2.72;;
38224;SDS011;24025;48.138;11.428;2023-04-05T07:35:50;4.43;;;2.78;;
38224;SDS011;24025;48.138;11.428;2023-04-05T07:38:24;6.50;;;3.03;;
38224;SDS011;24025;48.138;11.428;2023-04-05T07:40:57;10.07;;;3.30;;
38224;SDS011;24025;48.138;11.428;2023-04-05T07:43:28;8.52;;;3.30;;
38224;SDS011;24025;48.138;11.428;2023-04-05T07:46:01;4.72;;;2.83;;
38224;SDS011;24025;48.138;11.428;2023-04-05T07:48:34;6.97;;;3.00;;
38224;SDS011;24025;48.138;11.428;2023-04-05T07:51:06;10.17;;;3.00;;
38224;SDS011;24025;48.138;11.428;2023-04-05T07:53:38;5.55;;;2.65;;
38224;SDS011;24025;48.138;11.428;2023-04-05T07:56:11;8.25;;;2.95;;
38224;SDS011;24025;48.138;11.428;2023-04-05T07:58:46;3.55;;;3.17;;
38224;SDS011;24025;48.138;11.428;2023-04-05T08:01:20;4.80;;;2.10;;
38224;SDS011;24025;48.138;11.428;2023-04-05T08:03:53;7.10;;;2.53;;
38224;SDS011;24025;48.138;11.428;2023-04-05T08:06:27;5.22;;;2.72;;
38224;SDS011;24025;48.138;11.428;2023-04-05T08:09:01;5.90;;;2.33;;
38224;SDS011;24025;48.138;11.428;2023-04-05T08:11:35;4.07;;;2.45;;
38224;SDS011;24025;48.138;11.428;2023-04-05T08:14:08;5.28;;;2.30;;
38224;SDS011;24025;48.138;11.428;2023-04-05T08:16:39;5.22;;;2.17;;
38224;SDS011;24025;48.138;11.428;2023-04-05T08:19:11;7.03;;;2.42;;
38224;SDS011;24025;48.138;11.428;2023-04-05T08:21:45;5.18;;;2.60;;
38224;SDS011;24025;48.138;11.428;2023-04-05T08:24:17;4.17;;;2.47;;
38224;SDS011;24025;48.138;11.428;2023-04-05T08:26:48;7.82;;;2.97;;
38224;SDS011;24025;48.138;11.428;2023-04-05T08:29:20;9.73;;;2.78;;
38224;SDS011;24025;48.138;11.428;2023-04-05T08:31:54;4.87;;;2.57;;
38224;SDS011;24025;48.138;11.428;2023-04-05T08:34:27;6.03;;;2.50;;
38224;SDS011;24025;48.138;11.428;2023-04-05T08:36:59;5.00;;;2.77;;
38224;SDS011;24025;48.138;11.428;2023-04-05T08:39:33;5.53;;;2.88;;
38224;SDS011;24025;48.138;11.428;2023-04-05T08:44:46;6.07;;;2.70;;
38224;SDS011;24025;48.138;11.428;2023-04-05T08:47:23;6.25;;;3.10;;
38224;SDS011;24025;48.138;11.428;2023-04-05T08:49:55;5.00;;;2.78;;
38224;SDS011;24025;48.138;11.428;2023-04-05T08:52:27;8.77;;;3.50;;
38224;SDS011;24025;48.138;11.428;2023-04-05T08:55:01;4.57;;;2.63;;
38224;SDS011;24025;48.138;11.428;2023-04-05T08:57:33;7.82;;;2.80;;
38224;SDS011;24025;48.138;11.428;2023-04-05T09:00:09;5.85;;;3.38;;
38224;SDS011;24025;48.138;11.428;2023-04-05T09:02:42;6.70;;;2.70;;
38224;SDS011;24025;48.138;11.428;2023-04-05T09:05:19;5.30;;;2.42;;
38224;SDS011;24025;48.138;11.428;2023-04-05T09:07:51;7.93;;;2.72;;
38224;SDS011;24025;48.138;11.428;2023-04-05T09:10:23;8.77;;;2.78;;
38224;SDS011;24025;48.138;11.428;2023-04-05T09:12:56;5.63;;;2.78;;
38224;SDS011;24025;48.138;11.428;2023-04-05T09:15:30;5.30;;;2.50;;
38224;SDS011;24025;48.138;11.428;2023-04-05T09:18:04;6.18;;;2.47;;
38224;SDS011;24025;48.138;11.428;2023-04-05T09:20:49;3.60;;;1.92;;
38224;SDS011;24025;48.138;11.428;2023-04-05T09:23:21;6.57;;;2.43;;
38224;SDS011;24025;48.138;11.428;2023-04-05T09:25:52;6.90;;;2.30;;
38224;SDS011;24025;48.138;11.428;2023-04-05T09:28:38;4.07;;;1.93;;
38224;SDS011;24025;48.138;11.428;2023-04-05T09:34:07;2.97;;;1.92;;
38224;SDS011;24025;48.138;11.428;2023-04-05T09:36:42;10.70;;;2.33;;
38224;SDS011;24025;48.138;11.428;2023-04-05T09:39:15;5.70;;;2.22;;
38224;SDS011;24025;48.138;11.428;2023-04-05T09:42:05;4.43;;;2.33;;
38224;SDS011;24025;48.138;11.428;2023-04-05T09:44:59;5.82;;;1.90;;
38224;SDS011;24025;48.138;11.428;2023-04-05T09:47:33;4.30;;;2.08;;
38224;SDS011;24025;48.138;11.428;2023-04-05T09:52:45;8.27;;;2.30;;
38224;SDS011;24025;48.138;11.428;2023-04-05T09:55:25;4.10;;;1.92;;
38224;SDS011;24025;48.138;11.428;2023-04-05T09:57:58;6.10;;;2.47;;
38224;SDS011;24025;48.138;11.428;2023-04-05T10:00:29;5.67;;;2.40;;
38224;SDS011;24025;48.138;11.428;2023-04-05T10:03:04;5.43;;;2.65;;
38224;SDS011;24025;48.138;11.428;2023-04-05T10:05:35;4.60;;;2.10;;
38224;SDS011;24025;48.138;11.428;2023-04-05T10:08:08;7.10;;;2.83;;
38224;SDS011;24025;48.138;11.428;2023-04-05T10:10:45;4.32;;;2.17;;
38224;SDS011;24025;48.138;11.428;2023-04-05T10:13:17;6.72;;;1.95;;
38224;SDS011;24025;48.138;11.428;2023-04-05T10:15:50;4.53;;;2.63;;
38224;SDS011;24025;48.138;11.428;2023-04-05T10:18:28;4.80;;;2.20;;
38224;SDS011;24025;48.138;11.428;2023-04-05T10:21:10;3.45;;;2.38;;
38224;SDS011;24025;48.138;11.428;2023-04-05T10:23:43;4.60;;;2.28;;
38224;SDS011;24025;48.138;11.428;2023-04-05T10:26:25;5.65;;;2.08;;
38224;SDS011;24025;48.138;11.428;2023-04-05T10:29:16;3.63;;;2.75;;
38224;SDS011;24025;48.138;11.428;2023-04-05T10:31:58;5.28;;;2.22;;
38224;SDS011;24025;48.138;11.428;2023-04-05T10:34:44;4.03;;;2.17;;
38224;SDS011;24025;48.138;11.428;2023-04-05T10:37:29;4.20;;;2.22;;
38224;SDS011;24025;48.138;11.428;2023-04-05T10:40:13;5.53;;;2.33;;
38224;SDS011;24025;48.138;11.428;2023-04-05T10:42:50;5.25;;;2.22;;
38224;SDS011;24025;48.138;11.428;2023-04-05T10:45:21;4.20;;;1.90;;
38224;SDS011;24025;48.138;11.428;2023-04-05T10:48:01;4.40;;;2.22;;
38224;SDS011;24025;48.138;11.428;2023-04-05T10:50:41;3.25;;;2.28;;
38224;SDS011;24025;48.138;11.428;2023-04-05T10:53:14;4.90;;;2.08;;
38224;SDS011;24025;48.138;11.428;2023-04-05T10:58:20;5.25;;;2.53;;
38224;SDS011;24025;48.138;11.428;2023-04-05T11:00:54;5.50;;;3.33;;
38224;SDS011;24025;48.138;11.428;2023-04-05T11:06:31;4.63;;;1.83;;
38224;SDS011;24025;48.138;11.428;2023-04-05T11:09:11;4.07;;;2.30;;
38224;SDS011;24025;48.138;11.428;2023-04-05T11:11:51;3.80;;;2.10;;
38224;SDS011;24025;48.138;11.428;2023-04-05T11:14:35;6.82;;;2.58;;
38224;SDS011;24025;48.138;11.428;2023-04-05T11:20:04;3.58;;;2.33;;
38224;SDS011;24025;48.138;11.428;2023-04-05T11:22:41;7.00;;;2.20;;
38224;SDS011;24025;48.138;11.428;2023-04-05T11:25:24;3.22;;;2.28;;
38224;SDS011;24025;48.138;11.428;2023-04-05T11:27:59;6.20;;;2.40;;
38224;SDS011;24025;48.138;11.428;2023-04-05T11:30:50;3.70;;;2.30;;
38224;SDS011;24025;48.138;11.428;2023-04-05T11:41:53;3.97;;;2.33;;
38224;SDS011;24025;48.138;11.428;2023-04-05T11:44:40;7.82;;;2.13;;
38224;SDS011;24025;48.138;11.428;2023-04-05T11:47:16;8.13;;;2.20;;
38224;SDS011;24025;48.138;11.428;2023-04-05T11:49:51;3.67;;;2.17;;
38224;SDS011;24025;48.138;11.428;2023-04-05T11:52:23;3.88;;;2.63;;
38224;SDS011;24025;48.138;11.428;2023-04-05T11:54:54;7.77;;;2.83;;
38224;SDS011;24025;48.138;11.428;2023-04-05T11:57:26;4.50;;;2.60;;
38224;SDS011;24025;48.138;11.428;2023-04-05T11:59:59;4.10;;;2.75;;
38224;SDS011;24025;48.138;11.428;2023-04-05T12:02:33;5.87;;;2.50;;
38224;SDS011;24025;48.138;11.428;2023-04-05T12:05:05;3.53;;;2.03;;
38224;SDS011;24025;48.138;11.428;2023-04-05T12:07:37;5.00;;;2.33;;
38224;SDS011;24025;48.138;11.428;2023-04-05T12:10:09;5.27;;;2.60;;
38224;SDS011;24025;48.138;11.428;2023-04-05T12:12:44;3.55;;;2.15;;
38224;SDS011;24025;48.138;11.428;2023-04-05T12:15:17;5.07;;;2.67;;
38224;SDS011;24025;48.138;11.428;2023-04-05T12:17:49;6.07;;;2.47;;
38224;SDS011;24025;48.138;11.428;2023-04-05T12:20:23;5.55;;;2.70;;
38224;SDS011;24025;48.138;11.428;2023-04-05T12:22:56;4.85;;;2.50;;
38224;SDS011;24025;48.138;11.428;2023-04-05T12:25:28;3.88;;;2.50;;
38224;SDS011;24025;48.138;11.428;2023-04-05T12:28:03;4.00;;;2.38;;
38224;SDS011;24025;48.138;11.428;2023-04-05T12:30:47;6.32;;;3.08;;
38224;SDS011;24025;48.138;11.428;2023-04-05T12:33:29;5.20;;;2.30;;
38224;SDS011;24025;48.138;11.428;2023-04-05T12:36:03;6.13;;;2.85;;
38224;SDS011;24025;48.138;11.428;2023-04-05T12:38:36;8.90;;;2.65;;
38224;SDS011;24025;48.138;11.428;2023-04-05T12:41:08;5.18;;;2.20;;
38224;SDS011;24025;48.138;11.428;2023-04-05T12:43:41;2.45;;;2.10;;
38224;SDS011;24025;48.138;11.428;2023-04-05T12:46:16;4.97;;;2.70;;
38224;SDS011;24025;48.138;11.428;2023-04-05T12:48:49;4.20;;;2.03;;
38224;SDS011;24025;48.138;11.428;2023-04-05T12:51:22;5.05;;;2.10;;
38224;SDS011;24025;48.138;11.428;2023-04-05T12:53:55;4.25;;;2.97;;
38224;SDS011;24025;48.138;11.428;2023-04-05T12:56:27;3.92;;;2.33;;
38224;SDS011;24025;48.138;11.428;2023-04-05T12:59:03;4.07;;;2.42;;
38224;SDS011;24025;48.138;11.428;2023-04-05T13:01:37;3.67;;;2.25;;
38224;SDS011;24025;48.138;11.428;2023-04-05T13:04:09;2.78;;;2.45;;
38224;SDS011;24025;48.138;11.428;2023-04-05T13:06:44;4.03;;;2.17;;
38224;SDS011;24025;48.138;11.428;2023-04-05T13:09:17;4.20;;;2.67;;
38224;SDS011;24025;48.138;11.428;2023-04-05T13:11:49;3.00;;;2.20;;
38224;SDS011;24025;48.138;11.428;2023-04-05T13:14:21;3.45;;;2.40;;
38224;SDS011;24025;48.138;11.428;2023-04-05T13:16:52;5.07;;;2.57;;
38224;SDS011;24025;48.138;11.428;2023-04-05T13:19:24;4.43;;;2.33;;
38224;SDS011;24025;48.138;11.428;2023-04-05T13:21:55;3.67;;;2.60;;
38224;SDS011;24025;48.138;11.428;2023-04-05T13:24:27;2.78;;;2.15;;
38224;SDS011;24025;48.138;11.428;2023-04-05T13:26:58;4.03;;;2.53;;
38224;SDS011;24025;48.138;11.428;2023-04-05T13:29:32;7.28;;;2.80;;
38224;SDS011;24025;48.138;11.428;2023-04-05T13:32:04;4.60;;;2.50;;
38224;SDS011;24025;48.138;11.428;2023-04-05T13:34:35;4.78;;;2.85;;
38224;SDS011;24025;48.138;11.428;2023-04-05T13:37:07;4.17;;;2.43;;
38224;SDS011;24025;48.138;11.428;2023-04-05T13:39:38;9.53;;;2.87;;
38224;SDS011;24025;48.138;11.428;2023-04-05T13:42:10;3.03;;;2.37;;
38224;SDS011;24025;48.138;11.428;2023-04-05T13:44:43;4.53;;;2.63;;
38224;SDS011;24025;48.138;11.428;2023-04-05T13:47:15;3.80;;;2.42;;
38224;SDS011;24025;48.138;11.428;2023-04-05T13:49:48;6.10;;;2.92;;
38224;SDS011;24025;48.138;11.428;2023-04-05T13:52:20;4.47;;;2.33;;
38224;SDS011;24025;48.138;11.428;2023-04-05T13:54:51;5.47;;;2.30;;
38224;SDS011;24025;48.138;11.428;2023-04-05T14:00:05;5.38;;;3.67;;
38224;SDS011;24025;48.138;11.428;2023-04-05T14:02:38;4.65;;;2.50;;
38224;SDS011;24025;48.138;11.428;2023-04-05T14:07:42;2.35;;;1.88;;
38224;SDS011;24025;48.138;11.428;2023-04-05T14:10:13;6.18;;;3.03;;
38224;SDS011;24025;48.138;11.428;2023-04-05T14:12:45;3.08;;;2.38;;
38224;SDS011;24025;48.138;11.428;2023-04-05T14:17:48;3.35;;;2.58;;
38224;SDS011;24025;48.138;11.428;2023-04-05T14:20:20;4.85;;;2.70;;
38224;SDS011;24025;48.138;11.428;2023-04-05T14:22:51;4.93;;;2.35;;
38224;SDS011;24025;48.138;11.428;2023-04-05T14:30:26;2.80;;;2.17;;
38224;SDS011;24025;48.138;11.428;2023-04-05T14:32:59;2.70;;;2.08;;
38224;SDS011;24025;48.138;11.428;2023-04-05T14:35:30;6.68;;;2.65;;
38224;SDS011;24025;48.138;11.428;2023-04-05T14:38:02;2.90;;;2.50;;
38224;SDS011;24025;48.138;11.428;2023-04-05T14:40:34;4.00;;;2.88;;
38224;SDS011;24025;48.138;11.428;2023-04-05T14:43:05;2.97;;;2.70;;
38224;SDS011;24025;48.138;11.428;2023-04-05T14:45:37;4.30;;;2.60;;
38224;SDS011;24025;48.138;11.428;2023-04-05T14:48:09;2.95;;;2.25;;
38224;SDS011;24025;48.138;11.428;2023-04-05T14:50:40;4.63;;;2.47;;
38224;SDS011;24025;48.138;11.428;2023-04-05T14:53:12;4.88;;;2.47;;
38224;SDS011;24025;48.138;11.428;2023-04-05T14:55:44;4.53;;;2.85;;
38224;SDS011;24025;48.138;11.428;2023-04-05T14:58:15;4.05;;;3.08;;
38224;SDS011;24025;48.138;11.428;2023-04-05T15:00:47;3.33;;;2.42;;
38224;SDS011;24025;48.138;11.428;2023-04-05T15:03:20;5.32;;;2.25;;
38224;SDS011;24025;48.138;11.428;2023-04-05T15:05:53;2.72;;;2.50;;
38224;SDS011;24025;48.138;11.428;2023-04-05T15:08:24;3.65;;;2.60;;
38224;SDS011;24025;48.138;11.428;2023-04-05T15:10:56;3.55;;;2.25;;
38224;SDS011;24025;48.138;11.428;2023-04-05T15:13:28;4.25;;;2.30;;
38224;SDS011;24025;48.138;11.428;2023-04-05T15:16:00;3.08;;;2.78;;
38224;SDS011;24025;48.138;11.428;2023-04-05T15:18:32;2.67;;;2.33;;
38224;SDS011;24025;48.138;11.428;2023-04-05T15:21:03;2.30;;;2.10;;
38224;SDS011;24025;48.138;11.428;2023-04-05T15:23:36;3.30;;;2.33;;
38224;SDS011;24025;48.138;11.428;2023-04-05T15:26:07;4.50;;;2.70;;
38224;SDS011;24025;48.138;11.428;2023-04-05T15:28:39;2.95;;;2.40;;
38224;SDS011;24025;48.138;11.428;2023-04-05T15:31:10;3.85;;;2.65;;
38224;SDS011;24025;48.138;11.428;2023-04-05T15:33:42;2.78;;;2.20;;
38224;SDS011;24025;48.138;11.428;2023-04-05T15:36:13;4.10;;;2.17;;
38224;SDS011;24025;48.138;11.428;2023-04-05T15:38:45;3.17;;;2.00;;
38224;SDS011;24025;48.138;11.428;2023-04-05T15:41:17;3.95;;;2.40;;
38224;SDS011;24025;48.138;11.428;2023-04-05T15:43:49;3.17;;;2.10;;
38224;SDS011;24025;48.138;11.428;2023-04-05T15:46:20;2.47;;;2.08;;
38224;SDS011;24025;48.138;11.428;2023-04-05T15:48:52;2.65;;;2.30;;
38224;SDS011;24025;48.138;11.428;2023-04-05T15:51:24;3.00;;;2.67;;
38224;SDS011;24025;48.138;11.428;2023-04-05T15:53:56;4.53;;;3.42;;
38224;SDS011;24025;48.138;11.428;2023-04-05T15:56:27;6.28;;;4.18;;
38224;SDS011;24025;48.138;11.428;2023-04-05T15:58:59;3.72;;;2.80;;
38224;SDS011;24025;48.138;11.428;2023-04-05T16:01:31;5.45;;;2.63;;
38224;SDS011;24025;48.138;11.428;2023-04-05T16:04:03;3.65;;;2.53;;
38224;SDS011;24025;48.138;11.428;2023-04-05T16:06:35;4.93;;;2.63;;